CheckWX is a tool to help pilots better visualize weather data.  It is not intended as a substitute for an official pre-flight weather briefing.

13:16:35 UTC

VIDP METAR
Indira Gandhi International Airport
New Delhi, India
Current

17 mins ago

VIDP 051300Z 04006KT 4000 HZ FEW100 31/12 Q1011 NOSIG
Observed
Apr-5 @ 13:00 UTC
Wind
  • 040° at 6 KTS
Visibility
4007 meters
Flight Rules
IFR
Conditions
Haze
Cloud Levels
  • Few at 10,000' AGL
Temperature
31°C / 88°F
Dewpoint
12°C / 54°F
Humidity
31%
Altimeter
29.85" Hg
Pressure
1010.92 hPa
Previous

47 mins ago

VIDP 051230Z 05005KT 4000 HZ FEW100 31/11 Q1011 NOSIG
Observed
Apr-5 @ 12:30 UTC
Wind
  • 050° at 5 KTS
Visibility
4007 meters
Flight Rules
IFR
Conditions
Haze
Cloud Levels
  • Few at 10,000' AGL
Temperature
31°C / 88°F
Dewpoint
11°C / 52°F
Humidity
29%
Altimeter
29.85" Hg
Pressure
1010.92 hPa
Previous

1 hour ago

VIDP 051200Z 05004KT 4000 HZ FEW100 32/11 Q1011 NOSIG
Observed
Apr-5 @ 12:00 UTC
Wind
  • 050° at 4 KTS
Visibility
4007 meters
Flight Rules
IFR
Conditions
Haze
Cloud Levels
  • Few at 10,000' AGL
Temperature
32°C / 90°F
Dewpoint
11°C / 52°F
Humidity
27%
Altimeter
29.85" Hg
Pressure
1010.92 hPa